Time;durP1;ratioP1;P1;durP2;ratioP2;P2;SDS_P1;SDS_P2;PMS_P1;PMS_P2;Temp;Humidity;BMP_temperature;BMP_pressure;BME280_temperature;BME280_humidity;BME280_pressure;Samples;Min_cycle;Max_cycle;Signal;HPM_P1;HPM_P2
2023/12/18 00:04:10;;;;;;;1.30;1.30;;;;;;;;;;10351867;28;20216;-73
2023/12/18 00:09:11;;;;;;;1.33;1.23;;;;;;;;;;10347297;28;20227;-73
2023/12/18 00:14:12;;;;;;;1.15;1.05;;;;;;;;;;10343086;28;20283;-74
2023/12/18 00:19:13;;;;;;;0.95;0.90;;;;;;;;;;10325703;28;20996;-75
2023/12/18 00:24:14;;;;;;;1.23;1.23;;;;;;;;;;10345714;28;20228;-76
2023/12/18 00:29:15;;;;;;;1.10;1.10;;;;;;;;;;10346726;28;20618;-75
2023/12/18 00:34:16;;;;;;;1.38;1.27;;;;;;;;;;10339499;28;20223;-76
2023/12/18 00:39:17;;;;;;;1.10;1.10;;;;;;;;;;10349049;28;20240;-75
2023/12/18 00:44:18;;;;;;;0.88;0.82;;;;;;;;;;10336059;28;20247;-74
2023/12/18 00:49:19;;;;;;;0.93;0.93;;;;;;;;;;10348307;28;20692;-75
2023/12/18 00:54:20;;;;;;;0.80;0.80;;;;;;;;;;10338062;28;20211;-75
2023/12/18 00:59:21;;;;;;;1.08;1.00;;;;;;;;;;10342520;28;20523;-74
2023/12/18 01:04:22;;;;;;;1.05;1.05;;;;;;;;;;10345332;28;20227;-74
2023/12/18 01:09:23;;;;;;;1.85;1.42;;;;;;;;;;10363839;28;20258;-73
2023/12/18 01:14:24;;;;;;;1.30;1.30;;;;;;;;;;10340142;28;20220;-72
2023/12/18 01:19:25;;;;;;;1.25;1.13;;;;;;;;;;10345901;28;20211;-73
2023/12/18 01:24:26;;;;;;;1.35;1.33;;;;;;;;;;10344214;28;20247;-73
2023/12/18 01:29:27;;;;;;;1.52;1.40;;;;;;;;;;10337982;28;20223;-75
2023/12/18 01:34:28;;;;;;;3.03;1.38;;;;;;;;;;10337463;28;20208;-73
2023/12/18 01:39:29;;;;;;;1.65;1.55;;;;;;;;;;10346687;28;20261;-74
2023/12/18 01:44:30;;;;;;;1.55;1.45;;;;;;;;;;10332930;28;20221;-73
2023/12/18 01:49:31;;;;;;;1.70;1.63;;;;;;;;;;10341905;28;20232;-73
2023/12/18 01:54:33;;;;;;;2.28;1.98;;;;;;;;;;10334259;28;20224;-73
2023/12/18 01:59:34;;;;;;;1.85;1.75;;;;;;;;;;10335379;28;20216;-75
2023/12/18 02:04:35;;;;;;;3.55;2.15;;;;;;;;;;10339222;28;20287;-74
2023/12/18 02:09:36;;;;;;;1.90;1.80;;;;;;;;;;10354792;28;20228;-72
2023/12/18 02:14:37;;;;;;;6.03;2.90;;;;;;;;;;10339284;28;20606;-73
2023/12/18 02:19:38;;;;;;;2.70;2.55;;;;;;;;;;10342483;28;20315;-72
2023/12/18 02:24:39;;;;;;;2.22;2.05;;;;;;;;;;10344412;28;20833;-73
2023/12/18 02:29:40;;;;;;;4.35;3.17;;;;;;;;;;10322893;28;20239;-74
2023/12/18 02:34:41;;;;;;;2.70;2.50;;;;;;;;;;10331905;28;20281;-74
2023/12/18 02:39:42;;;;;;;5.85;3.38;;;;;;;;;;10337613;28;20277;-73
2023/12/18 02:44:43;;;;;;;3.38;3.15;;;;;;;;;;10336595;28;20220;-74
2023/12/18 02:49:44;;;;;;;3.92;3.55;;;;;;;;;;10339393;28;20713;-73
2023/12/18 02:54:45;;;;;;;5.22;3.50;;;;;;;;;;10331253;28;20218;-74
2023/12/18 02:59:46;;;;;;;6.07;4.30;;;;;;;;;;10339347;28;20224;-73
2023/12/18 03:04:47;;;;;;;4.18;3.78;;;;;;;;;;10339491;28;20277;-72
2023/12/18 03:09:48;;;;;;;4.20;3.78;;;;;;;;;;10339435;28;20596;-73
2023/12/18 03:14:49;;;;;;;5.57;4.38;;;;;;;;;;10341513;28;20299;-74
2023/12/18 03:19:50;;;;;;;4.40;3.97;;;;;;;;;;10343872;28;20207;-72
2023/12/18 03:24:51;;;;;;;5.40;4.05;;;;;;;;;;10337233;28;20226;-73
2023/12/18 03:29:52;;;;;;;6.60;4.32;;;;;;;;;;10337041;28;20226;-72
2023/12/18 03:34:53;;;;;;;5.47;4.30;;;;;;;;;;10338581;28;20235;-73
2023/12/18 03:39:54;;;;;;;5.03;4.13;;;;;;;;;;10344446;28;20289;-72
2023/12/18 03:44:55;;;;;;;4.85;4.35;;;;;;;;;;10331474;28;20263;-74
2023/12/18 03:49:56;;;;;;;5.78;4.25;;;;;;;;;;10337032;28;20216;-73
2023/12/18 03:54:57;;;;;;;7.47;5.25;;;;;;;;;;10355580;28;20226;-72
2023/12/18 03:59:58;;;;;;;6.30;5.10;;;;;;;;;;10329040;28;20246;-73
2023/12/18 04:04:59;;;;;;;6.95;4.55;;;;;;;;;;10336761;28;20262;-73
2023/12/18 04:10:00;;;;;;;7.55;4.75;;;;;;;;;;10352447;28;20586;-72
2023/12/18 04:15:01;;;;;;;6.90;5.07;;;;;;;;;;10337608;28;20212;-73
2023/12/18 04:20:03;;;;;;;6.55;5.40;;;;;;;;;;10347989;28;20560;-73
2023/12/18 04:25:04;;;;;;;6.30;5.10;;;;;;;;;;10344462;28;20219;-73
2023/12/18 04:30:05;;;;;;;8.05;4.88;;;;;;;;;;10341474;28;20827;-72
2023/12/18 04:35:07;;;;;;;6.57;5.13;;;;;;;;;;10349077;28;20219;-73
2023/12/18 04:40:08;;;;;;;10.35;4.78;;;;;;;;;;10346460;28;20233;-72
2023/12/18 04:45:10;;;;;;;5.82;5.10;;;;;;;;;;10341240;28;20220;-73
2023/12/18 04:50:11;;;;;;;5.70;5.15;;;;;;;;;;10340060;28;20871;-75
2023/12/18 04:55:12;;;;;;;6.30;5.22;;;;;;;;;;10340477;28;20212;-76
2023/12/18 05:00:13;;;;;;;6.65;4.97;;;;;;;;;;10336204;28;20219;-76
2023/12/18 05:05:14;;;;;;;8.15;5.03;;;;;;;;;;10327040;28;20216;-75
2023/12/18 05:10:15;;;;;;;7.38;5.57;;;;;;;;;;10339152;28;20231;-72
2023/12/18 05:15:16;;;;;;;7.47;5.28;;;;;;;;;;10339612;28;20216;-74
2023/12/18 05:20:17;;;;;;;9.18;5.05;;;;;;;;;;10344090;28;20212;-72
2023/12/18 05:25:18;;;;;;;13.13;5.78;;;;;;;;;;10344377;28;20223;-74
2023/12/18 05:30:19;;;;;;;7.20;5.25;;;;;;;;;;10352039;28;20228;-73
2023/12/18 05:35:20;;;;;;;6.68;4.90;;;;;;;;;;10339726;28;20565;-73
2023/12/18 05:40:21;;;;;;;6.13;5.53;;;;;;;;;;10342576;28;23348;-73
2023/12/18 05:45:22;;;;;;;11.13;6.60;;;;;;;;;;10350730;28;21155;-73
2023/12/18 05:50:23;;;;;;;8.25;6.32;;;;;;;;;;10326345;28;20243;-73
2023/12/18 05:55:24;;;;;;;10.32;5.53;;;;;;;;;;10341844;28;20219;-72
2023/12/18 06:00:25;;;;;;;6.43;5.80;;;;;;;;;;10323248;28;20223;-72
2023/12/18 06:05:26;;;;;;;6.68;5.50;;;;;;;;;;10339661;28;20212;-73
2023/12/18 06:10:27;;;;;;;6.15;5.35;;;;;;;;;;10333224;28;20781;-74
2023/12/18 06:15:28;;;;;;;6.57;5.15;;;;;;;;;;10327628;28;20266;-73
2023/12/18 06:20:29;;;;;;;7.38;5.68;;;;;;;;;;10306362;28;20273;-75
2023/12/18 06:25:30;;;;;;;6.72;5.97;;;;;;;;;;10315267;28;20304;-74
2023/12/18 06:30:31;;;;;;;9.60;5.93;;;;;;;;;;10331817;28;20226;-77
2023/12/18 06:35:32;;;;;;;11.77;7.00;;;;;;;;;;10290344;28;20227;-75
2023/12/18 06:40:33;;;;;;;6.63;5.57;;;;;;;;;;10334201;28;20247;-73
2023/12/18 06:45:34;;;;;;;9.82;6.20;;;;;;;;;;10331410;28;20231;-75
2023/12/18 06:50:35;;;;;;;11.73;6.38;;;;;;;;;;10311895;28;20223;-73
2023/12/18 06:55:36;;;;;;;10.32;6.78;;;;;;;;;;10330329;28;20234;-72
2023/12/18 07:00:38;;;;;;;9.15;6.68;;;;;;;;;;10324103;28;20247;-73
2023/12/18 07:05:38;;;;;;;7.80;6.15;;;;;;;;;;10335307;28;20220;-74
2023/12/18 07:10:40;;;;;;;8.88;6.10;;;;;;;;;;10324355;28;20223;-72
2023/12/18 07:15:41;;;;;;;5.93;5.43;;;;;;;;;;10332545;28;20236;-73
2023/12/18 07:20:43;;;;;;;6.53;5.90;;;;;;;;;;10321520;28;20224;-74
2023/12/18 07:25:44;;;;;;;6.95;5.72;;;;;;;;;;10327395;28;20216;-73
2023/12/18 07:30:45;;;;;;;7.95;6.05;;;;;;;;;;10327697;28;20228;-75
2023/12/18 07:35:46;;;;;;;14.23;6.78;;;;;;;;;;10326995;28;20251;-73
2023/12/18 07:40:47;;;;;;;9.05;7.35;;;;;;;;;;10327450;28;20223;-73
2023/12/18 07:45:48;;;;;;;13.95;7.50;;;;;;;;;;10328174;28;20279;-73
2023/12/18 07:50:49;;;;;;;10.55;7.22;;;;;;;;;;10336285;28;20827;-74
2023/12/18 07:55:50;;;;;;;10.70;8.43;;;;;;;;;;10330785;28;20282;-72
2023/12/18 08:00:51;;;;;;;14.50;9.07;;;;;;;;;;10338764;28;20223;-73
2023/12/18 08:05:52;;;;;;;13.75;7.80;;;;;;;;;;10331841;28;20590;-73
2023/12/18 08:10:54;;;;;;;14.43;7.82;;;;;;;;;;10336602;28;20234;-74
2023/12/18 08:15:55;;;;;;;15.27;8.15;;;;;;;;;;10336082;28;20216;-74
2023/12/18 08:20:56;;;;;;;14.77;8.88;;;;;;;;;;10329124;28;20564;-72
2023/12/18 08:25:57;;;;;;;16.70;8.18;;;;;;;;;;10343587;28;20208;-73
2023/12/18 08:30:58;;;;;;;12.27;7.28;;;;;;;;;;10324918;28;20315;-72
2023/12/18 08:35:59;;;;;;;14.57;8.95;;;;;;;;;;10327617;28;20212;-75
2023/12/18 08:41:00;;;;;;;13.50;7.95;;;;;;;;;;10337296;28;20223;-73
2023/12/18 08:46:01;;;;;;;11.57;6.68;;;;;;;;;;10328975;28;20224;-74
2023/12/18 08:51:02;;;;;;;16.45;8.05;;;;;;;;;;10323187;28;20215;-71
2023/12/18 08:56:04;;;;;;;11.63;7.10;;;;;;;;;;10328964;28;20274;-74
2023/12/18 09:01:05;;;;;;;8.85;6.63;;;;;;;;;;10324469;28;20279;-72
2023/12/18 09:06:06;;;;;;;8.77;6.05;;;;;;;;;;10326825;28;20642;-74
2023/12/18 09:11:08;;;;;;;7.00;6.03;;;;;;;;;;10339011;28;20258;-73
2023/12/18 09:16:09;;;;;;;12.68;6.80;;;;;;;;;;10331525;28;20216;-72
2023/12/18 09:21:10;;;;;;;9.00;6.43;;;;;;;;;;10331317;28;20212;-73
2023/12/18 09:26:13;;;;;;;6.88;5.85;;;;;;;;;;10326755;28;20220;-74
2023/12/18 09:31:16;;;;;;;12.05;5.43;;;;;;;;;;10329286;28;20255;-75
2023/12/18 09:36:17;;;;;;;8.40;5.88;;;;;;;;;;10326786;28;20302;-73
2023/12/18 09:41:26;;;;;;;7.38;5.68;;;;;;;;;;10332328;28;20228;-73
2023/12/18 09:46:27;;;;;;;6.40;4.55;;;;;;;;;;10327449;28;20235;-72
2023/12/18 09:51:28;;;;;;;6.22;5.15;;;;;;;;;;10328405;28;20772;-74
2023/12/18 09:56:30;;;;;;;7.72;5.63;;;;;;;;;;10328362;28;20219;-77
2023/12/18 10:01:32;;;;;;;7.15;5.28;;;;;;;;;;10328723;28;20473;-77
2023/12/18 10:06:33;;;;;;;7.35;5.57;;;;;;;;;;10328666;28;20346;-76
2023/12/18 10:11:34;;;;;;;5.90;5.20;;;;;;;;;;10329859;28;20597;-78
2023/12/18 10:16:35;;;;;;;5.15;4.63;;;;;;;;;;10327456;28;20513;-75
2023/12/18 10:21:37;;;;;;;9.27;5.10;;;;;;;;;;10327442;28;20216;-74
2023/12/18 10:26:39;;;;;;;4.88;4.43;;;;;;;;;;10338092;28;20238;-75
2023/12/18 10:31:40;;;;;;;6.07;5.18;;;;;;;;;;10327301;28;20239;-76
2023/12/18 10:36:43;;;;;;;7.15;4.82;;;;;;;;;;10329637;28;20247;-73
2023/12/18 10:41:45;;;;;;;7.13;4.78;;;;;;;;;;10315406;28;20223;-75
2023/12/18 10:46:47;;;;;;;6.43;4.72;;;;;;;;;;10331318;28;20235;-73
2023/12/18 10:51:50;;;;;;;7.03;4.93;;;;;;;;;;10321836;28;20370;-74
2023/12/18 10:56:52;;;;;;;5.40;4.25;;;;;;;;;;10336636;28;20243;-75
2023/12/18 11:01:54;;;;;;;5.75;4.40;;;;;;;;;;10334365;28;20650;-77
2023/12/18 11:06:55;;;;;;;8.02;4.20;;;;;;;;;;10317983;28;20713;-74
2023/12/18 11:11:57;;;;;;;4.57;4.18;;;;;;;;;;10334126;28;20231;-74
2023/12/18 11:16:58;;;;;;;9.30;3.88;;;;;;;;;;10341948;28;20299;-74
2023/12/18 11:22:04;;;;;;;6.90;4.43;;;;;;;;;;10343007;28;20353;-74
2023/12/18 11:27:06;;;;;;;6.10;4.53;;;;;;;;;;10322255;28;20212;-74
2023/12/18 11:32:07;;;;;;;6.82;4.35;;;;;;;;;;10339935;28;20757;-74
2023/12/18 11:37:08;;;;;;;5.68;4.90;;;;;;;;;;10343978;28;20246;-73
2023/12/18 11:42:10;;;;;;;4.93;4.53;;;;;;;;;;10330522;28;20219;-74
2023/12/18 11:47:11;;;;;;;5.68;5.10;;;;;;;;;;10335391;28;20285;-74
2023/12/18 11:52:17;;;;;;;9.35;4.70;;;;;;;;;;10327316;28;20223;-74
2023/12/18 11:57:21;;;;;;;5.00;4.55;;;;;;;;;;10336373;28;20690;-73
2023/12/18 12:02:23;;;;;;;5.90;4.13;;;;;;;;;;10344671;28;20216;-74
2023/12/18 12:07:24;;;;;;;8.25;4.22;;;;;;;;;;10330495;28;20767;-75
2023/12/18 12:12:25;;;;;;;6.47;4.00;;;;;;;;;;10335825;28;20308;-75
2023/12/18 12:17:27;;;;;;;3.72;3.40;;;;;;;;;;10325200;28;20695;-74
2023/12/18 12:22:29;;;;;;;4.60;4.20;;;;;;;;;;10326589;28;20363;-75
2023/12/18 12:27:30;;;;;;;4.38;3.60;;;;;;;;;;10321465;28;20216;-74
2023/12/18 12:32:31;;;;;;;4.55;4.20;;;;;;;;;;10316193;28;20231;-74
2023/12/18 12:37:32;;;;;;;4.65;3.90;;;;;;;;;;10307823;28;20211;-73
2023/12/18 12:42:35;;;;;;;4.53;3.55;;;;;;;;;;10301457;28;20239;-74
2023/12/18 12:47:36;;;;;;;5.45;3.92;;;;;;;;;;10323563;28;20307;-75
2023/12/18 12:52:38;;;;;;;4.30;4.00;;;;;;;;;;10301574;28;20837;-78
2023/12/18 12:57:39;;;;;;;6.32;3.67;;;;;;;;;;10329627;28;20216;-75
2023/12/18 13:02:40;;;;;;;6.40;3.75;;;;;;;;;;10336093;28;20216;-76
2023/12/18 13:07:41;;;;;;;4.07;3.78;;;;;;;;;;10334778;28;20718;-75
2023/12/18 13:12:42;;;;;;;5.20;3.50;;;;;;;;;;10333919;28;20280;-74
2023/12/18 13:17:43;;;;;;;3.50;3.20;;;;;;;;;;10333297;28;20336;-73
2023/12/18 13:22:44;;;;;;;4.50;3.78;;;;;;;;;;10314732;28;20216;-74
2023/12/18 13:27:45;;;;;;;6.38;4.00;;;;;;;;;;10326502;28;20212;-76
2023/12/18 13:32:46;;;;;;;4.38;3.83;;;;;;;;;;10336581;28;20607;-75
2023/12/18 13:37:47;;;;;;;5.28;3.95;;;;;;;;;;10331487;28;20215;-76
2023/12/18 13:42:49;;;;;;;3.83;3.20;;;;;;;;;;10333891;28;20219;-75
2023/12/18 13:47:51;;;;;;;4.45;3.65;;;;;;;;;;10323221;28;20455;-75
2023/12/18 13:52:52;;;;;;;4.95;3.88;;;;;;;;;;10323929;28;20713;-77
2023/12/18 13:57:53;;;;;;;4.80;3.92;;;;;;;;;;10344751;28;20274;-75
2023/12/18 14:02:54;;;;;;;5.45;3.60;;;;;;;;;;10335183;28;20220;-74
2023/12/18 14:07:55;;;;;;;3.55;3.00;;;;;;;;;;10348012;28;22480;-75
2023/12/18 14:12:56;;;;;;;4.25;3.95;;;;;;;;;;10336477;28;20235;-75
2023/12/18 14:17:57;;;;;;;5.82;4.50;;;;;;;;;;10332135;28;20211;-73
2023/12/18 14:22:58;;;;;;;4.10;3.80;;;;;;;;;;10335141;28;20220;-73
2023/12/18 14:27:59;;;;;;;5.45;3.75;;;;;;;;;;10331728;28;20223;-74
2023/12/18 14:33:00;;;;;;;8.40;5.32;;;;;;;;;;10356677;28;20301;-76
2023/12/18 14:38:02;;;;;;;11.70;6.90;;;;;;;;;;10331574;28;20270;-73
2023/12/18 14:43:03;;;;;;;21.90;12.15;;;;;;;;;;10333978;28;20220;-74
2023/12/18 14:48:04;;;;;;;17.25;10.35;;;;;;;;;;10334919;28;20574;-73
2023/12/18 14:53:07;;;;;;;10.43;6.78;;;;;;;;;;10331399;28;20212;-73
2023/12/18 14:58:08;;;;;;;9.55;7.03;;;;;;;;;;10335740;28;20212;-73
2023/12/18 15:03:10;;;;;;;8.43;5.93;;;;;;;;;;10340735;28;20773;-73
2023/12/18 15:08:11;;;;;;;7.70;6.40;;;;;;;;;;10332450;28;20745;-72
2023/12/18 15:13:12;;;;;;;9.13;5.55;;;;;;;;;;10339743;28;20222;-72
2023/12/18 15:18:13;;;;;;;8.07;5.65;;;;;;;;;;10337436;28;20351;-75
2023/12/18 15:23:14;;;;;;;7.57;5.22;;;;;;;;;;10341039;28;20343;-72
2023/12/18 15:28:16;;;;;;;21.13;12.05;;;;;;;;;;10341193;28;20360;-74
2023/12/18 15:33:17;;;;;;;10.00;6.35;;;;;;;;;;10320067;28;20212;-72
2023/12/18 15:38:18;;;;;;;8.63;4.80;;;;;;;;;;10330498;28;20216;-72
2023/12/18 15:43:19;;;;;;;7.18;5.03;;;;;;;;;;10324676;28;20227;-72
2023/12/18 15:48:20;;;;;;;9.88;6.28;;;;;;;;;;10341249;28;20318;-72
2023/12/18 15:53:21;;;;;;;7.10;5.60;;;;;;;;;;10310091;28;20223;-74
2023/12/18 15:58:22;;;;;;;7.82;5.90;;;;;;;;;;10335028;28;20981;-73
2023/12/18 16:03:23;;;;;;;4.53;4.13;;;;;;;;;;10319355;28;20228;-73
2023/12/18 16:08:24;;;;;;;5.40;4.75;;;;;;;;;;10336522;28;20220;-72
2023/12/18 16:13:25;;;;;;;6.05;4.40;;;;;;;;;;10322419;28;20302;-72
2023/12/18 16:18:26;;;;;;;5.25;4.70;;;;;;;;;;10332603;28;20330;-74
2023/12/18 16:23:27;;;;;;;4.80;4.20;;;;;;;;;;10321563;28;20208;-73
2023/12/18 16:28:28;;;;;;;10.88;6.45;;;;;;;;;;10323753;28;20217;-72
2023/12/18 16:33:29;;;;;;;14.20;8.35;;;;;;;;;;10328769;28;20746;-72
2023/12/18 16:38:31;;;;;;;10.32;7.35;;;;;;;;;;10323610;28;20224;-72
2023/12/18 16:43:32;;;;;;;8.88;7.20;;;;;;;;;;10328789;28;20646;-73
2023/12/18 16:48:34;;;;;;;11.40;7.05;;;;;;;;;;10333455;28;20242;-73
2023/12/18 16:53:35;;;;;;;8.52;5.40;;;;;;;;;;10324032;28;20299;-74
2023/12/18 16:58:36;;;;;;;4.88;4.35;;;;;;;;;;10330524;28;20220;-72
2023/12/18 17:03:37;;;;;;;8.63;4.78;;;;;;;;;;10333242;28;20756;-73
2023/12/18 17:08:38;;;;;;;6.80;4.80;;;;;;;;;;10325429;28;20646;-75
2023/12/18 17:13:39;;;;;;;4.90;4.43;;;;;;;;;;10324196;28;20222;-73
2023/12/18 17:18:42;;;;;;;6.25;4.63;;;;;;;;;;10337885;28;20769;-73
2023/12/18 17:23:43;;;;;;;6.43;4.90;;;;;;;;;;10340338;28;20224;-73
2023/12/18 17:28:44;;;;;;;8.43;5.65;;;;;;;;;;10336882;28;20581;-72
2023/12/18 17:33:45;;;;;;;8.75;5.45;;;;;;;;;;10343753;28;20211;-73
2023/12/18 17:38:46;;;;;;;8.93;5.28;;;;;;;;;;10337796;28;20290;-72
2023/12/18 17:43:47;;;;;;;7.25;5.70;;;;;;;;;;10322451;28;20223;-73
2023/12/18 17:48:49;;;;;;;9.10;6.30;;;;;;;;;;10338598;28;20307;-72
2023/12/18 17:53:50;;;;;;;6.25;5.53;;;;;;;;;;10328860;28;20267;-75
2023/12/18 17:58:51;;;;;;;8.05;6.10;;;;;;;;;;10327028;28;20212;-74
2023/12/18 18:03:52;;;;;;;5.20;4.70;;;;;;;;;;10340760;28;20219;-73
2023/12/18 18:08:53;;;;;;;6.63;4.32;;;;;;;;;;10326590;28;20216;-73
2023/12/18 18:13:57;;;;;;;5.30;4.65;;;;;;;;;;10331040;28;20216;-75
2023/12/18 18:19:00;;;;;;;4.85;4.28;;;;;;;;;;10323900;28;21553;-73
2023/12/18 18:24:01;;;;;;;5.68;4.30;;;;;;;;;;10330371;28;20229;-75
2023/12/18 18:29:02;;;;;;;6.47;5.10;;;;;;;;;;10316151;28;20247;-72
2023/12/18 18:34:05;;;;;;;7.78;5.20;;;;;;;;;;10331023;28;20226;-74
2023/12/18 18:39:06;;;;;;;9.63;5.20;;;;;;;;;;10323433;28;20949;-74
2023/12/18 18:44:08;;;;;;;10.50;6.28;;;;;;;;;;10329223;28;20228;-73
2023/12/18 18:49:10;;;;;;;6.20;5.10;;;;;;;;;;10325422;28;20236;-73
2023/12/18 18:54:11;;;;;;;5.05;4.65;;;;;;;;;;10323708;28;21026;-74
2023/12/18 18:59:12;;;;;;;5.78;4.72;;;;;;;;;;10324777;28;20224;-75
2023/12/18 19:04:14;;;;;;;6.07;5.47;;;;;;;;;;10320952;28;20764;-74
2023/12/18 19:09:16;;;;;;;7.20;6.10;;;;;;;;;;10327062;28;20243;-74
2023/12/18 19:14:17;;;;;;;7.55;6.38;;;;;;;;;;10330298;28;20231;-74
2023/12/18 19:19:18;;;;;;;7.32;6.65;;;;;;;;;;10323797;28;20224;-71
2023/12/18 19:24:19;;;;;;;5.65;5.05;;;;;;;;;;10329171;28;20226;-72
2023/12/18 19:29:20;;;;;;;7.25;6.53;;;;;;;;;;10328207;28;20220;-74
2023/12/18 19:34:21;;;;;;;7.63;4.57;;;;;;;;;;10327062;28;20219;-74
2023/12/18 19:39:22;;;;;;;7.00;4.55;;;;;;;;;;10335401;28;20224;-73
2023/12/18 19:44:24;;;;;;;6.28;5.00;;;;;;;;;;10337903;28;20387;-73
2023/12/18 19:49:25;;;;;;;11.05;6.50;;;;;;;;;;10335475;28;20245;-72
2023/12/18 19:54:26;;;;;;;8.02;6.43;;;;;;;;;;10341473;28;20545;-73
2023/12/18 19:59:27;;;;;;;10.25;5.55;;;;;;;;;;10334282;28;20220;-73
2023/12/18 20:04:28;;;;;;;6.53;4.93;;;;;;;;;;10342786;28;20216;-75
2023/12/18 20:09:29;;;;;;;12.32;4.82;;;;;;;;;;10334260;28;20709;-73
2023/12/18 20:14:30;;;;;;;9.07;5.10;;;;;;;;;;10356850;28;20278;-72
2023/12/18 20:19:31;;;;;;;5.47;4.72;;;;;;;;;;10331619;28;20219;-74
2023/12/18 20:24:33;;;;;;;7.97;6.13;;;;;;;;;;10338031;28;20842;-74
2023/12/18 20:29:34;;;;;;;6.50;5.78;;;;;;;;;;10338648;28;20224;-74
2023/12/18 20:34:35;;;;;;;8.35;5.35;;;;;;;;;;10333315;28;20220;-74
2023/12/18 20:39:36;;;;;;;7.05;5.32;;;;;;;;;;10332014;28;20224;-74
2023/12/18 20:44:37;;;;;;;4.43;4.10;;;;;;;;;;10326763;28;20587;-74
2023/12/18 20:49:40;;;;;;;4.65;4.32;;;;;;;;;;10343824;28;20827;-76
2023/12/18 20:54:41;;;;;;;6.18;4.30;;;;;;;;;;10344250;28;20605;-76
2023/12/18 20:59:42;;;;;;;4.90;3.47;;;;;;;;;;10338480;28;20223;-74
2023/12/18 21:04:43;;;;;;;4.65;4.13;;;;;;;;;;10334572;28;20686;-76
2023/12/18 21:09:44;;;;;;;3.97;3.67;;;;;;;;;;10348749;28;20223;-74
2023/12/18 21:14:45;;;;;;;3.70;3.40;;;;;;;;;;10340375;28;21186;-73
2023/12/18 21:19:46;;;;;;;4.35;3.65;;;;;;;;;;10341892;28;20263;-73
2023/12/18 21:24:47;;;;;;;4.78;4.30;;;;;;;;;;10361861;28;20215;-73
2023/12/18 21:29:48;;;;;;;5.13;3.83;;;;;;;;;;10320623;28;20902;-72
2023/12/18 21:34:49;;;;;;;4.20;3.83;;;;;;;;;;10330710;28;20226;-72
2023/12/18 21:39:51;;;;;;;4.95;3.22;;;;;;;;;;10339103;28;20211;-73
2023/12/18 21:44:52;;;;;;;5.22;3.45;;;;;;;;;;10334251;28;21048;-76
2023/12/18 21:49:53;;;;;;;4.97;3.60;;;;;;;;;;10326642;28;20215;-72
2023/12/18 21:54:55;;;;;;;3.40;3.10;;;;;;;;;;10338167;28;21949;-73
2023/12/18 21:59:56;;;;;;;5.53;3.53;;;;;;;;;;10336816;28;20290;-73
2023/12/18 22:04:57;;;;;;;6.68;4.18;;;;;;;;;;10337590;28;20267;-73
2023/12/18 22:10:03;;;;;;;7.57;4.38;;;;;;;;;;10345449;28;20694;-74
2023/12/18 22:15:04;;;;;;;5.15;3.08;;;;;;;;;;10339158;28;20212;-73
2023/12/18 22:20:05;;;;;;;4.55;3.78;;;;;;;;;;10345092;28;20222;-73
2023/12/18 22:25:07;;;;;;;4.05;3.75;;;;;;;;;;10341219;28;20664;-72
2023/12/18 22:30:08;;;;;;;4.47;3.25;;;;;;;;;;10340747;28;20246;-73
2023/12/18 22:35:09;;;;;;;2.72;2.42;;;;;;;;;;10338479;28;20223;-72
2023/12/18 22:40:10;;;;;;;4.07;2.38;;;;;;;;;;10342587;28;20216;-73
2023/12/18 22:45:11;;;;;;;3.13;2.25;;;;;;;;;;10345856;28;20668;-73
2023/12/18 22:50:12;;;;;;;2.83;2.30;;;;;;;;;;10341965;28;20219;-75
2023/12/18 22:55:13;;;;;;;3.13;2.80;;;;;;;;;;10315958;28;20219;-72
2023/12/18 23:00:22;;;;;;;2.72;2.42;;;;;;;;;;10339819;28;20722;-73
2023/12/18 23:05:23;;;;;;;3.30;3.00;;;;;;;;;;10337560;28;20285;-73
2023/12/18 23:10:24;;;;;;;1.73;1.70;;;;;;;;;;10344397;28;20228;-73
2023/12/18 23:15:25;;;;;;;2.28;2.22;;;;;;;;;;10344474;28;20219;-74
2023/12/18 23:20:26;;;;;;;2.17;2.08;;;;;;;;;;10341566;28;20232;-72
2023/12/18 23:25:27;;;;;;;2.35;2.25;;;;;;;;;;10350668;28;20266;-72
2023/12/18 23:30:28;;;;;;;2.75;2.55;;;;;;;;;;10335276;28;20285;-74
2023/12/18 23:35:29;;;;;;;2.15;1.98;;;;;;;;;;10346003;28;20215;-73
2023/12/18 23:40:30;;;;;;;1.88;1.65;;;;;;;;;;10346109;28;20216;-74
2023/12/18 23:45:32;;;;;;;2.08;1.98;;;;;;;;;;10340686;28;20705;-73
2023/12/18 23:50:33;;;;;;;2.00;1.90;;;;;;;;;;10348384;28;20242;-73
2023/12/18 23:55:34;;;;;;;1.90;1.80;;;;;;;;;;10345084;28;20220;-74
